createdAt,value
2022-11-24T00:08:56.346Z,99502.32
2022-11-24T00:19:02.107Z,99505.59
2022-11-24T00:29:08.112Z,99505.73
2022-11-24T00:39:13.918Z,99514.94
2022-11-24T00:49:17.642Z,99515.71
2022-11-24T00:59:21.324Z,99510.19
2022-11-24T01:09:25.146Z,99497.72
2022-11-24T01:19:28.963Z,99486.09
2022-11-24T01:29:32.723Z,99480.90
2022-11-24T01:39:36.509Z,99484.69
2022-11-24T01:49:47.455Z,99497.68
2022-11-24T01:59:56.621Z,99512.63
2022-11-24T02:10:09.090Z,99507.09
2022-11-24T02:20:14.801Z,99501.61
2022-11-24T02:30:18.649Z,99488.80
2022-11-24T02:40:25.962Z,99479.22
2022-11-24T02:50:29.805Z,99500.11
2022-11-24T03:00:33.615Z,99509.80
2022-11-24T03:10:37.361Z,99490.73
2022-11-24T03:20:41.415Z,99499.87
2022-11-24T03:30:45.210Z,99491.23
2022-11-24T03:40:48.918Z,99495.36
2022-11-24T03:50:55.807Z,99499.73
2022-11-24T04:00:59.813Z,99512.63
2022-11-24T04:11:03.930Z,99507.73
2022-11-24T04:21:07.680Z,99507.23
2022-11-24T04:31:11.413Z,99508.78
2022-11-24T04:41:15.105Z,99518.51
2022-11-24T04:51:18.924Z,99510.52
2022-11-24T05:01:22.730Z,99520.56
2022-11-24T05:11:26.559Z,99526.08
2022-11-24T05:21:30.128Z,99533.59
2022-11-24T05:31:33.904Z,99543.48
2022-11-24T05:41:37.647Z,99542.98
2022-11-24T05:51:41.514Z,99542.77
2022-11-24T06:01:45.252Z,99546.65
2022-11-24T06:11:49.372Z,99556.05
2022-11-24T06:21:53.023Z,99559.36
2022-11-24T06:31:56.657Z,99565.67
2022-11-24T06:42:00.596Z,99566.25
2022-11-24T06:52:04.611Z,99578.52
2022-11-24T07:02:10.432Z,99573.98
2022-11-24T07:12:14.110Z,99583.42
2022-11-24T07:22:18.090Z,99605.97
2022-11-24T07:32:21.900Z,99605.26
2022-11-24T07:42:25.667Z,99612.91
2022-11-24T07:52:29.329Z,99612.86
2022-11-24T08:02:33.978Z,99606.04
2022-11-24T08:12:37.701Z,99610.20
2022-11-24T08:22:41.430Z,99622.60
2022-11-24T08:32:44.983Z,99623.60
2022-11-24T08:42:48.846Z,99629.55
2022-11-24T08:52:54.023Z,99625.54
2022-11-24T09:02:58.757Z,99625.59
2022-11-24T09:13:02.518Z,99623.53
2022-11-24T09:23:06.199Z,99615.91
2022-11-24T09:33:10.260Z,99610.11
2022-11-24T09:43:30.890Z,99600.67
2022-11-24T09:53:44.915Z,99607.60
2022-11-24T10:03:52.913Z,99614.32
2022-11-24T10:14:11.882Z,99619.55
2022-11-24T10:24:40.242Z,99634.84
2022-11-24T10:34:46.622Z,99625.03
2022-11-24T10:45:01.503Z,99629.55
2022-11-24T10:55:06.506Z,99637.58
2022-11-24T11:05:42.417Z,99637.05
2022-11-24T11:15:46.419Z,99646.34
2022-11-24T11:25:50.079Z,99647.58
2022-11-24T11:35:54.538Z,99642.50
2022-11-24T11:46:10.372Z,99642.69
2022-11-24T11:56:46.678Z,99644.59
2022-11-24T12:07:07.378Z,99639.73
2022-11-24T12:17:30.114Z,99640.89
2022-11-24T12:28:08.310Z,99644.71
2022-11-24T12:38:57.943Z,99646.58
2022-11-24T12:49:27.516Z,99648.30
2022-11-24T12:59:44.065Z,99644.14
2022-11-24T13:10:55.297Z,99650.03
2022-11-24T13:20:49.002Z,99663.35
2022-11-24T13:30:52.961Z,99670.70
2022-11-24T13:41:13.501Z,99654.82
2022-11-24T13:51:24.459Z,99643.75
2022-11-24T14:01:40.982Z,99650.23
2022-11-24T14:11:55.001Z,99663.98
2022-11-24T14:21:58.654Z,99672.54
2022-11-24T14:32:05.121Z,99677.30
2022-11-24T14:42:27.530Z,99678.29
2022-11-24T14:52:31.295Z,99688.40
2022-11-24T15:02:47.547Z,99695.77
2022-11-24T15:12:57.453Z,99713.67
2022-11-24T15:23:16.676Z,99719.26
2022-11-24T15:33:22.479Z,99730.04
2022-11-24T15:43:44.370Z,99725.70
2022-11-24T15:53:57.190Z,99719.61
2022-11-24T16:04:04.393Z,99717.31
2022-11-24T16:14:08.007Z,99722.72
2022-11-24T16:24:11.743Z,99738.02
2022-11-24T16:34:15.581Z,99750.63
2022-11-24T16:44:19.204Z,99760.75
2022-11-24T16:54:23.112Z,99755.11
2022-11-24T17:04:26.872Z,99761.42
2022-11-24T17:14:30.503Z,99770.27
2022-11-24T17:24:34.360Z,99766.73
2022-11-24T17:34:38.139Z,99765.33
2022-11-24T17:44:42.828Z,99780.71
2022-11-24T17:54:47.006Z,99804.87
2022-11-24T18:04:50.901Z,99806.00
2022-11-24T18:14:54.650Z,99817.13
2022-11-24T18:24:58.212Z,99823.84
2022-11-24T18:35:01.948Z,99803.55
2022-11-24T18:45:06.389Z,99794.36
2022-11-24T18:55:10.381Z,99798.02
2022-11-24T19:05:14.021Z,99808.46
2022-11-24T19:15:17.672Z,99809.86
2022-11-24T19:25:21.717Z,99819.34
2022-11-24T19:35:25.329Z,99833.71
2022-11-24T19:45:29.270Z,99848.17
2022-11-24T19:55:32.932Z,99854.47
2022-11-24T20:05:36.557Z,99854.70
2022-11-24T20:15:40.183Z,99859.74
2022-11-24T20:25:43.803Z,99864.50
2022-11-24T20:35:48.765Z,99875.10
2022-11-24T20:45:52.465Z,99884.36
2022-11-24T20:56:24.222Z,99886.64
2022-11-24T21:06:28.571Z,99882.56
2022-11-24T21:16:35.876Z,99872.79
2022-11-24T21:26:40.979Z,99878.15
2022-11-24T21:36:45.354Z,99894.66
2022-11-24T21:46:54.391Z,99907.59
2022-11-24T21:56:59.865Z,99917.00
2022-11-24T22:07:03.480Z,99919.12
2022-11-24T22:17:07.404Z,99915.92
2022-11-24T22:27:10.990Z,99921.89
2022-11-24T22:37:15.428Z,99921.19
2022-11-24T22:57:30.544Z,99933.30
2022-11-24T23:07:34.207Z,99931.36
2022-11-24T23:17:37.841Z,99932.42
2022-11-24T23:27:41.353Z,99926.49
2022-11-24T23:38:06.634Z,99918.77
2022-11-24T23:48:08.855Z,99914.27
2022-11-24T23:58:13.025Z,99911.99
